Time;durP1;ratioP1;P1;durP2;ratioP2;P2;SDS_P1;SDS_P2;PMS_P1;PMS_P2;Temp;Humidity;BMP_temperature;BMP_pressure;BME280_temperature;BME280_humidity;BME280_pressure;Samples;Min_cycle;Max_cycle;Signal;HPM_P1;HPM_P2
2022/02/08 00:06:36;;;;;;;1.67;0.50;;;8.60;69.90;;;;;;20974013;28;20036;-74
2022/02/08 00:16:37;;;;;;;1.37;0.70;;;8.50;69.80;;;;;;20974626;28;20020;-71
2022/02/08 00:26:37;;;;;;;2.50;0.90;;;8.50;69.80;;;;;;20989522;28;20139;-70
2022/02/08 00:36:38;;;;;;;5.25;1.23;;;8.50;69.80;;;;;;20971808;28;20360;-71
2022/02/08 00:46:57;;;;;;;3.97;1.10;;;8.60;69.80;;;;;;20971208;28;20379;-71
2022/02/08 00:56:58;;;;;;;2.30;0.75;;;8.50;69.70;;;;;;20957418;28;20032;-71
2022/02/08 01:07:00;;;;;;;2.90;0.98;;;8.50;69.70;;;;;;20987318;28;20040;-70
2022/02/08 01:17:01;;;;;;;1.75;0.57;;;8.50;69.70;;;;;;20969370;28;20372;-71
2022/02/08 01:27:07;;;;;;;6.95;0.75;;;8.50;69.80;;;;;;20973903;28;20036;-70
2022/02/08 01:37:24;;;;;;;2.67;0.90;;;8.50;69.70;;;;;;20986286;28;20119;-71
2022/02/08 01:47:42;;;;;;;3.30;0.55;;;8.50;69.70;;;;;;20987171;28;20051;-70
2022/02/08 01:57:44;;;;;;;1.75;0.70;;;8.50;69.80;;;;;;20986460;28;20102;-71
2022/02/08 02:07:49;;;;;;;1.60;0.68;;;8.50;69.70;;;;;;20983069;28;20040;-71
2022/02/08 02:17:52;;;;;;;2.17;0.50;;;8.60;69.70;;;;;;20983642;28;20323;-71
2022/02/08 02:27:58;;;;;;;3.97;0.65;;;8.50;69.60;;;;;;20981576;28;20415;-70
2022/02/08 02:37:59;;;;;;;3.55;0.77;;;8.50;69.60;;;;;;20980169;28;20028;-71
2022/02/08 02:48:05;;;;;;;2.25;0.68;;;8.50;69.60;;;;;;20981930;28;20078;-71
2022/02/08 02:58:14;;;;;;;2.80;0.70;;;8.50;69.60;;;;;;20980281;28;20033;-71
2022/02/08 03:18:38;;;;;;;3.40;0.95;;;8.50;69.50;;;;;;20979974;28;20064;-71
2022/02/08 03:28:39;;;;;;;2.22;0.68;;;8.50;69.50;;;;;;20957151;28;20440;-72
2022/02/08 03:38:47;;;;;;;4.35;1.17;;;8.50;69.50;;;;;;20960612;28;20032;-73
2022/02/08 03:48:49;;;;;;;5.45;1.30;;;8.50;69.50;;;;;;20974602;28;20040;-71
2022/02/08 03:58:54;;;;;;;1.58;0.80;;;8.50;69.60;;;;;;20991809;28;20082;-71
2022/02/08 04:08:59;;;;;;;2.65;1.10;;;8.50;69.70;;;;;;20973606;28;20098;-71
2022/02/08 04:19:24;;;;;;;2.47;1.33;;;8.50;69.80;;;;;;21007802;28;20047;-71
2022/02/08 04:49:42;;;;;;;7.60;2.47;;;8.50;70.20;;;;;;20989391;28;20198;-71
2022/02/08 05:41:34;;;;;;;2.55;1.00;;;8.70;70.20;;;;;;21002998;28;20127;-78
2022/02/08 05:51:16;;;;;;;3.08;1.17;;;8.90;69.90;;;;;;21005048;28;20041;-79
2022/02/08 06:01:17;;;;;;;6.40;1.23;;;9.10;69.40;;;;;;20984531;28;20037;-75
2022/02/08 06:11:50;;;;;;;2.95;0.85;;;9.30;68.90;;;;;;20965441;28;20051;-76
2022/02/08 06:21:50;;;;;;;3.30;1.23;;;9.40;68.60;;;;;;20982649;28;20471;-75
2022/02/08 06:31:51;;;;;;;4.80;1.75;;;9.40;68.50;;;;;;20981769;28;20112;-72
2022/02/08 06:41:51;;;;;;;1.23;0.90;;;9.30;68.60;;;;;;20995113;28;20032;-75
2022/02/08 06:51:52;;;;;;;2.65;0.88;;;9.20;69.00;;;;;;20982503;28;20575;-74
2022/02/08 07:01:53;;;;;;;1.80;0.75;;;9.10;69.50;;;;;;20964481;28;20040;-74
2022/02/08 07:11:56;;;;;;;1.65;0.90;;;9.00;69.90;;;;;;20997261;28;20506;-76
2022/02/08 07:21:57;;;;;;;3.97;0.85;;;8.90;70.20;;;;;;20978636;28;20546;-74
2022/02/08 07:32:00;;;;;;;1.27;0.80;;;8.80;70.60;;;;;;20978822;28;20052;-75
2022/02/08 07:42:01;;;;;;;2.53;0.95;;;8.80;70.90;;;;;;20975683;28;20115;-75
2022/02/08 07:52:02;;;;;;;2.75;1.13;;;8.70;71.20;;;;;;20976328;28;20059;-74
2022/02/08 08:02:03;;;;;;;2.72;1.30;;;8.70;71.50;;;;;;20975602;28;20536;-75
2022/02/08 08:12:03;;;;;;;2.65;1.42;;;8.70;71.80;;;;;;20974948;28;20399;-75
2022/02/08 08:22:08;;;;;;;7.25;3.08;;;8.70;72.10;;;;;;20990988;28;20128;-75
2022/02/08 08:32:09;;;;;;;2.42;1.42;;;8.60;72.30;;;;;;20990807;28;20541;-74
2022/02/08 08:52:12;;;;;;;3.75;1.88;;;8.60;72.80;;;;;;20989785;28;20047;-74
2022/02/08 09:02:13;;;;;;;5.20;3.20;;;8.60;73.30;;;;;;20972647;28;20040;-75
2022/02/08 09:12:23;;;;;;;8.30;3.47;;;8.60;73.90;;;;;;20972338;28;20068;-74
2022/02/08 09:32:53;;;;;;;5.18;2.63;;;8.50;75.50;;;;;;20988384;28;20052;-74
2022/02/08 09:42:55;;;;;;;5.97;2.42;;;8.60;75.80;;;;;;20972486;28;20036;-74
2022/02/08 09:52:59;;;;;;;7.47;3.40;;;8.60;75.90;;;;;;20981770;28;20029;-74
2022/02/08 10:03:07;;;;;;;4.93;3.00;;;8.60;75.90;;;;;;20984962;28;20037;-74
2022/02/08 10:23:11;;;;;;;3.65;2.00;;;8.60;75.90;;;;;;20999298;28;20044;-75
2022/02/08 10:43:18;;;;;;;6.50;3.17;;;8.60;75.90;;;;;;20986475;28;20052;-78
2022/02/08 10:53:20;;;;;;;6.20;3.92;;;8.60;76.00;;;;;;20986883;28;20083;-78
2022/02/08 11:03:36;;;;;;;7.90;2.30;;;8.60;76.10;;;;;;20980862;28;20040;-77
2022/02/08 11:13:59;;;;;;;5.32;2.25;;;8.60;76.20;;;;;;20981212;28;20039;-74
2022/02/08 11:24:04;;;;;;;5.63;2.50;;;8.70;76.20;;;;;;20994957;28;20036;-78
2022/02/08 11:44:51;;;;;;;9.05;2.38;;;8.90;75.90;;;;;;20995332;28;20037;-78
2022/02/08 11:55:08;;;;;;;4.88;1.70;;;9.00;75.50;;;;;;21399161;22;20061;-78
2022/02/08 13:14:25;;;;;;;2.53;1.70;;;9.20;74.60;;;;;;20891521;28;20368;-84
2022/02/08 14:08:58;;;;;;;7.95;1.65;;;9.00;76.10;;;;;;20925359;28;20528;-83
2022/02/08 14:19:21;;;;;;;3.13;1.13;;;9.00;76.20;;;;;;20905785;28;20033;-82
2022/02/08 15:10:51;;;;;;;4.50;2.70;;;9.00;77.00;;;;;;20903613;28;20115;-80
2022/02/08 15:20:52;;;;;;;3.25;1.83;;;9.00;77.10;;;;;;20869519;28;20418;-81
2022/02/08 15:31:01;;;;;;;2.50;1.30;;;8.90;77.20;;;;;;20916367;28;20033;-82
2022/02/08 15:41:03;;;;;;;3.65;1.50;;;9.00;77.20;;;;;;20894603;28;20398;-78
2022/02/08 15:51:15;;;;;;;4.22;1.60;;;8.90;77.30;;;;;;20913927;28;20087;-77
2022/02/08 16:01:38;;;;;;;2.10;1.30;;;9.00;77.30;;;;;;20914991;28;20033;-75
2022/02/08 16:11:52;;;;;;;3.22;1.30;;;9.00;77.40;;;;;;20914263;28;20047;-78
2022/02/08 17:03:27;;;;;;;3.47;1.83;;;9.10;77.80;;;;;;20802098;28;20049;-83
2022/02/08 17:54:40;;;;;;;4.63;2.28;;;9.10;79.20;;;;;;20794238;28;20038;-77
2022/02/08 18:04:43;;;;;;;4.07;2.20;;;9.20;79.20;;;;;;20804615;28;20040;-76
2022/02/08 18:14:49;;;;;;;3.90;2.60;;;9.10;79.30;;;;;;20819232;28;20038;-80
2022/02/08 18:56:22;;;;;;;5.60;3.13;;;9.10;79.50;;;;;;20888265;28;20489;-81
2022/02/08 19:26:31;;;;;;;4.87;2.93;;;9.10;79.40;;;;;;20866631;28;20033;-90
2022/02/08 19:36:36;;;;;;;3.47;2.53;;;9.10;79.60;;;;;;20896333;28;20036;-85
2022/02/08 19:46:37;;;;;;;8.43;2.28;;;9.20;79.60;;;;;;20917534;28;20039;-84
2022/02/08 19:56:49;;;;;;;6.18;2.75;;;9.20;79.60;;;;;;20820627;28;20041;-87
2022/02/08 20:06:52;;;;;;;6.70;2.90;;;9.10;79.60;;;;;;20856332;28;20033;-81
2022/02/08 20:16:53;;;;;;;3.47;1.92;;;9.10;79.70;;;;;;20883891;28;20190;-85
2022/02/08 20:37:09;;;;;;;4.13;2.60;;;9.20;79.80;;;;;;20819492;28;20033;-86
2022/02/08 20:47:20;;;;;;;3.63;2.30;;;9.20;79.80;;;;;;20838709;28;20377;-86
2022/02/08 20:57:26;;;;;;;5.05;2.47;;;9.10;79.80;;;;;;20902931;28;20127;-86
2022/02/08 21:07:27;;;;;;;3.57;2.10;;;9.20;80.00;;;;;;20883513;28;20040;-86
2022/02/08 21:17:27;;;;;;;3.05;1.95;;;9.20;80.00;;;;;;20867085;28;20033;-86
2022/02/08 21:27:30;;;;;;;3.58;2.47;;;9.20;80.00;;;;;;20916736;28;20040;-87
2022/02/08 21:48:14;;;;;;;2.47;1.95;;;9.20;80.10;;;;;;20899030;28;20047;-86
2022/02/08 21:58:14;;;;;;;3.90;2.10;;;9.20;80.00;;;;;;20905137;28;20403;-86
2022/02/08 22:08:23;;;;;;;4.72;2.72;;;9.20;80.10;;;;;;20897698;28;20033;-87
2022/02/08 22:39:03;;;;;;;4.05;2.28;;;9.20;80.20;;;;;;20913215;28;20043;-87
2022/02/08 22:49:04;;;;;;;3.70;2.50;;;9.20;80.30;;;;;;20894708;28;20110;-84
2022/02/08 22:59:07;;;;;;;3.50;1.88;;;9.20;80.40;;;;;;20876040;28;20033;-85
2022/02/08 23:09:13;;;;;;;3.10;2.05;;;9.20;80.30;;;;;;20909324;28;20036;-84
2022/02/08 23:39:51;;;;;;;3.60;2.17;;;9.20;80.20;;;;;;20909101;28;20055;-87
2022/02/08 23:49:57;;;;;;;4.85;2.72;;;9.30;80.40;;;;;;20892227;28;20033;-87
